Time;durP1;ratioP1;P1;durP2;ratioP2;P2;SDS_P1;SDS_P2;PMS_P1;PMS_P2;Temp;Humidity;BMP_temperature;BMP_pressure;BME280_temperature;BME280_humidity;BME280_pressure;Samples;Min_cycle;Max_cycle;Signal;HPM_P1;HPM_P2
2022/05/22 00:01:21;;;;;;;6.40;1.97;;;13.50;1.00;;;;;;5064308;28;20473;-79
2022/05/22 00:03:47;;;;;;;5.10;2.53;;;13.40;1.00;;;;;;5063195;28;20455;-81
2022/05/22 00:06:15;;;;;;;6.23;1.83;;;13.40;1.00;;;;;;5063765;28;20555;-78
2022/05/22 00:08:42;;;;;;;7.40;2.10;;;13.40;1.00;;;;;;5060374;28;20930;-79
2022/05/22 00:11:10;;;;;;;6.00;1.53;;;13.40;1.00;;;;;;5060910;28;21901;-78
2022/05/22 00:13:37;;;;;;;4.40;2.20;;;13.40;1.00;;;;;;5064805;28;20551;-78
2022/05/22 00:18:45;;;;;;;6.20;1.73;;;13.40;1.00;;;;;;5046997;28;20482;-76
2022/05/22 00:21:11;;;;;;;6.97;2.30;;;13.40;1.00;;;;;;5063236;28;20539;-79
2022/05/22 00:23:38;;;;;;;5.87;2.00;;;13.40;1.00;;;;;;5061121;28;20514;-78
2022/05/22 00:26:05;;;;;;;5.50;2.20;;;13.40;1.00;;;;;;5060576;28;20469;-77
2022/05/22 00:28:33;;;;;;;5.93;2.03;;;13.40;1.00;;;;;;5060022;28;21399;-77
2022/05/22 00:30:59;;;;;;;6.83;2.40;;;13.40;1.00;;;;;;5058146;28;20434;-78
2022/05/22 00:33:28;;;;;;;6.13;2.83;;;13.40;1.00;;;;;;5061663;28;20462;-78
2022/05/22 00:35:54;;;;;;;5.27;2.57;;;13.40;1.00;;;;;;5058650;28;20538;-81
2022/05/22 00:38:21;;;;;;;8.23;2.13;;;13.40;1.00;;;;;;5059704;28;20472;-80
2022/05/22 00:40:48;;;;;;;5.90;1.73;;;13.30;1.00;;;;;;5060687;28;20441;-76
2022/05/22 00:43:26;;;;;;;5.77;2.27;;;13.30;1.00;;;;;;5061179;28;20500;-77
2022/05/22 00:45:54;;;;;;;5.77;2.03;;;13.40;1.00;;;;;;5060625;28;21509;-79
2022/05/22 00:48:21;;;;;;;5.40;2.00;;;13.30;1.00;;;;;;5064831;28;20486;-81
2022/05/22 00:50:49;;;;;;;5.77;2.20;;;13.30;1.00;;;;;;5057965;28;20485;-79
2022/05/22 00:53:16;;;;;;;5.73;2.03;;;13.30;1.00;;;;;;5062583;28;20482;-79
2022/05/22 00:55:42;;;;;;;5.30;1.93;;;13.30;1.00;;;;;;5063362;28;20790;-76
2022/05/22 00:58:14;;;;;;;5.20;2.03;;;13.30;1.00;;;;;;5063450;28;21347;-79
2022/05/22 01:00:41;;;;;;;3.77;2.13;;;13.30;1.00;;;;;;5058852;28;21389;-80
2022/05/22 01:03:29;;;;;;;6.80;1.90;;;13.30;1.00;;;;;;5061249;28;21276;-77
2022/05/22 01:05:57;;;;;;;8.30;1.90;;;13.30;1.00;;;;;;5059006;28;20458;-82
2022/05/22 01:08:25;;;;;;;4.00;1.83;;;13.20;1.00;;;;;;5060878;28;20523;-79
2022/05/22 01:10:56;;;;;;;6.13;2.30;;;13.10;1.00;;;;;;5060824;28;20918;-80
2022/05/22 01:13:28;;;;;;;5.00;2.17;;;13.00;1.00;;;;;;5060371;28;20453;-79
2022/05/22 01:15:54;;;;;;;5.57;2.47;;;12.90;1.00;;;;;;5059082;28;20477;-79
2022/05/22 01:18:22;;;;;;;4.97;2.00;;;12.90;1.00;;;;;;5060937;28;20487;-79
2022/05/22 01:20:51;;;;;;;6.80;1.87;;;12.80;1.00;;;;;;5061009;28;20539;-82
2022/05/22 01:23:20;;;;;;;3.70;2.00;;;12.80;1.00;;;;;;5062011;28;20457;-77
2022/05/22 01:25:47;;;;;;;4.83;2.27;;;12.70;1.00;;;;;;5060155;28;20546;-78
2022/05/22 01:28:17;;;;;;;6.87;2.47;;;12.70;1.00;;;;;;5061012;28;22593;-80
2022/05/22 01:30:44;;;;;;;7.30;2.30;;;12.60;1.00;;;;;;5059758;28;20467;-77
2022/05/22 01:33:11;;;;;;;4.67;1.90;;;12.60;1.00;;;;;;5063603;28;20518;-79
2022/05/22 01:35:38;;;;;;;4.30;1.80;;;12.60;1.00;;;;;;5060259;28;21397;-78
2022/05/22 01:38:05;;;;;;;5.70;2.23;;;12.60;1.00;;;;;;5059442;28;20475;-75
2022/05/22 01:40:34;;;;;;;5.40;2.00;;;12.50;1.00;;;;;;5057544;28;20486;-78
2022/05/22 01:43:01;;;;;;;5.40;2.20;;;12.50;1.00;;;;;;5057563;28;20521;-79
2022/05/22 01:45:29;;;;;;;4.53;1.93;;;12.50;1.00;;;;;;5057719;28;20466;-81
2022/05/22 01:47:56;;;;;;;7.80;2.60;;;12.50;1.00;;;;;;5056156;28;20473;-79
2022/05/22 01:50:23;;;;;;;7.30;2.10;;;12.40;1.00;;;;;;5060795;28;20468;-80
2022/05/22 01:52:50;;;;;;;6.10;2.73;;;12.40;1.00;;;;;;5059016;28;20573;-78
2022/05/22 01:55:17;;;;;;;6.73;2.90;;;12.40;1.00;;;;;;5060067;28;20530;-78
2022/05/22 01:57:45;;;;;;;6.80;2.70;;;12.40;1.00;;;;;;5056505;28;20451;-78
2022/05/22 02:00:15;;;;;;;6.90;2.67;;;12.40;1.00;;;;;;5058054;28;20553;-78
2022/05/22 02:02:42;;;;;;;7.43;2.63;;;12.40;1.00;;;;;;5056240;28;20587;-78
2022/05/22 02:05:09;;;;;;;4.37;2.13;;;12.40;1.00;;;;;;5056261;28;20508;-79
2022/05/22 02:10:22;;;;;;;10.27;2.97;;;12.50;1.00;;;;;;5057735;28;20484;-78
2022/05/22 02:12:51;;;;;;;5.47;2.57;;;12.50;1.00;;;;;;5054460;28;20659;-81
2022/05/22 02:15:19;;;;;;;6.33;2.17;;;12.60;1.00;;;;;;5058800;28;22121;-80
2022/05/22 02:17:45;;;;;;;10.53;3.07;;;12.60;1.00;;;;;;5056562;28;20464;-81
2022/05/22 02:20:12;;;;;;;4.50;2.30;;;12.50;1.00;;;;;;5056521;28;21404;-78
2022/05/22 02:22:41;;;;;;;6.57;2.30;;;12.50;1.00;;;;;;5054097;28;20470;-78
2022/05/22 02:25:08;;;;;;;7.87;2.90;;;12.50;1.00;;;;;;5058415;28;20444;-79
2022/05/22 02:27:35;;;;;;;6.00;2.43;;;12.50;1.00;;;;;;5061147;28;21341;-79
2022/05/22 02:30:06;;;;;;;7.23;2.87;;;12.50;1.00;;;;;;5056292;28;20500;-80
2022/05/22 02:32:33;;;;;;;8.60;2.70;;;12.60;1.00;;;;;;5059348;28;20450;-80
2022/05/22 02:35:00;;;;;;;15.43;3.20;;;12.60;1.00;;;;;;5059201;28;20897;-79
2022/05/22 02:37:27;;;;;;;5.70;2.50;;;12.60;1.00;;;;;;5058821;28;20513;-78
2022/05/22 02:39:57;;;;;;;7.07;2.57;;;12.60;1.00;;;;;;5056406;28;20502;-81
2022/05/22 02:42:24;;;;;;;4.60;2.03;;;12.60;1.00;;;;;;5055625;28;21433;-81
2022/05/22 02:44:51;;;;;;;5.17;2.17;;;12.60;1.00;;;;;;5055521;28;20545;-81
2022/05/22 02:47:19;;;;;;;4.47;2.50;;;12.60;1.00;;;;;;5057883;28;20646;-77
2022/05/22 02:49:45;;;;;;;5.17;2.57;;;12.50;1.00;;;;;;5057952;28;20755;-80
2022/05/22 02:52:13;;;;;;;5.93;2.40;;;12.50;1.00;;;;;;5057795;28;21124;-80
2022/05/22 02:54:40;;;;;;;7.83;2.70;;;12.50;1.00;;;;;;5059865;28;21301;-79
2022/05/22 02:57:07;;;;;;;7.77;2.80;;;12.40;1.00;;;;;;5060099;28;20465;-81
2022/05/22 02:59:35;;;;;;;7.27;2.60;;;12.40;1.00;;;;;;5058335;28;20481;-82
2022/05/22 03:02:02;;;;;;;5.97;2.77;;;12.40;1.00;;;;;;5059616;28;20482;-79
2022/05/22 03:04:31;;;;;;;9.70;2.70;;;12.30;1.00;;;;;;5055777;28;20822;-79
2022/05/22 03:06:58;;;;;;;6.53;2.33;;;12.30;1.00;;;;;;5055383;28;20460;-78
2022/05/22 03:09:25;;;;;;;7.23;2.33;;;12.30;1.00;;;;;;5055362;28;20473;-78
2022/05/22 03:11:53;;;;;;;6.50;3.10;;;12.20;1.00;;;;;;5055187;28;20464;-77
2022/05/22 03:14:19;;;;;;;5.33;2.50;;;12.20;1.00;;;;;;5062326;28;20956;-78
2022/05/22 03:16:47;;;;;;;6.67;3.00;;;12.20;1.00;;;;;;5059433;28;20535;-80
2022/05/22 03:19:14;;;;;;;7.10;2.70;;;12.10;1.00;;;;;;5061524;28;20491;-78
2022/05/22 03:21:42;;;;;;;7.83;2.87;;;12.10;1.00;;;;;;5052174;28;20591;-79
2022/05/22 03:24:09;;;;;;;6.93;2.73;;;12.10;1.00;;;;;;5061638;28;20563;-79
2022/05/22 03:26:36;;;;;;;7.27;2.50;;;12.10;1.00;;;;;;5058774;28;20440;-80
2022/05/22 03:29:03;;;;;;;7.10;2.67;;;12.10;1.00;;;;;;5056128;28;20525;-76
2022/05/22 03:31:30;;;;;;;6.27;2.27;;;12.10;1.00;;;;;;5058572;28;20522;-76
2022/05/22 03:33:57;;;;;;;8.90;2.60;;;12.20;1.00;;;;;;5052229;28;20477;-78
2022/05/22 03:36:24;;;;;;;7.33;2.73;;;12.20;1.00;;;;;;5054376;28;21270;-81
2022/05/22 03:38:52;;;;;;;5.73;2.60;;;12.30;1.00;;;;;;5056731;28;20559;-78
2022/05/22 03:41:18;;;;;;;6.90;2.90;;;12.30;1.00;;;;;;5053690;28;21012;-78
2022/05/22 03:43:45;;;;;;;9.30;3.00;;;12.40;1.00;;;;;;5055862;28;21009;-79
2022/05/22 03:46:12;;;;;;;5.33;2.53;;;12.40;1.00;;;;;;5055446;28;20464;-80
2022/05/22 03:48:38;;;;;;;7.33;3.17;;;12.50;1.00;;;;;;5054562;28;20516;-78
2022/05/22 03:51:05;;;;;;;5.73;2.90;;;12.50;1.00;;;;;;5054150;28;20480;-79
2022/05/22 03:53:32;;;;;;;6.43;2.77;;;12.60;1.00;;;;;;5055365;28;20591;-79
2022/05/22 03:55:59;;;;;;;8.80;3.40;;;12.60;1.00;;;;;;5055255;28;20544;-78
2022/05/22 03:58:26;;;;;;;6.30;2.97;;;12.50;1.00;;;;;;5054266;28;20491;-79
2022/05/22 04:00:53;;;;;;;5.83;2.60;;;12.50;1.00;;;;;;5055006;28;20510;-79
2022/05/22 04:03:19;;;;;;;6.57;2.30;;;12.40;1.00;;;;;;5046135;28;21366;-79
2022/05/22 04:05:46;;;;;;;6.70;2.53;;;12.40;1.00;;;;;;5055445;28;20534;-78
2022/05/22 04:08:12;;;;;;;9.20;3.57;;;12.30;1.00;;;;;;5056190;28;20498;-81
2022/05/22 04:10:39;;;;;;;6.33;3.53;;;12.30;1.00;;;;;;5055779;28;20520;-80
2022/05/22 04:13:08;;;;;;;8.80;3.50;;;12.30;1.00;;;;;;5056258;28;20817;-77
2022/05/22 04:15:35;;;;;;;6.37;2.70;;;12.30;1.00;;;;;;5054274;28;20457;-78
2022/05/22 04:18:02;;;;;;;7.47;3.30;;;12.20;1.00;;;;;;5053597;28;20468;-82
2022/05/22 04:20:28;;;;;;;5.37;2.90;;;12.20;1.00;;;;;;5051956;28;20941;-76
2022/05/22 04:25:39;;;;;;;4.30;2.50;;;12.20;1.00;;;;;;5055205;28;20472;-79
2022/05/22 04:28:07;;;;;;;6.80;2.97;;;12.20;1.00;;;;;;5056386;28;20996;-79
2022/05/22 04:30:34;;;;;;;7.40;3.17;;;12.20;1.00;;;;;;5053476;28;20565;-82
2022/05/22 04:33:01;;;;;;;10.90;3.00;;;12.20;1.00;;;;;;5058713;28;20988;-77
2022/05/22 04:35:28;;;;;;;7.43;3.60;;;12.20;1.00;;;;;;5058839;28;20459;-81
2022/05/22 04:37:59;;;;;;;9.17;3.07;;;12.30;1.00;;;;;;5052398;28;20491;-78
2022/05/22 04:40:26;;;;;;;8.80;3.33;;;12.30;1.00;;;;;;5031914;28;21017;-81
2022/05/22 04:42:53;;;;;;;5.43;2.87;;;12.30;1.00;;;;;;5054635;28;20533;-78
2022/05/22 04:45:21;;;;;;;8.90;3.07;;;12.40;1.00;;;;;;5058019;28;20479;-78
2022/05/22 04:47:49;;;;;;;6.63;3.20;;;12.50;1.00;;;;;;5060354;28;20449;-80
2022/05/22 04:50:17;;;;;;;5.20;3.00;;;12.50;1.00;;;;;;5060933;28;24600;-78
2022/05/22 04:52:44;;;;;;;8.77;3.23;;;12.50;1.00;;;;;;5058706;28;20628;-80
2022/05/22 04:55:11;;;;;;;5.80;3.20;;;12.50;1.00;;;;;;5063869;28;20554;-78
2022/05/22 04:57:39;;;;;;;4.47;2.60;;;12.50;1.00;;;;;;5058790;28;20473;-81
2022/05/22 05:00:09;;;;;;;7.30;3.10;;;12.60;1.00;;;;;;5060522;28;21226;-80
2022/05/22 05:02:38;;;;;;;7.60;3.50;;;12.70;1.00;;;;;;5057134;28;20469;-78
2022/05/22 05:05:08;;;;;;;6.50;2.90;;;12.80;1.00;;;;;;5054573;28;20468;-78
2022/05/22 05:07:37;;;;;;;9.67;3.50;;;12.90;1.00;;;;;;5057769;28;20589;-78
2022/05/22 05:10:04;;;;;;;8.33;3.00;;;12.90;1.00;;;;;;5060526;28;20904;-77
2022/05/22 05:12:30;;;;;;;7.20;3.40;;;12.90;1.00;;;;;;5061870;28;20622;-76
2022/05/22 05:14:57;;;;;;;9.03;3.07;;;13.00;1.00;;;;;;5059508;28;20608;-78
2022/05/22 05:17:24;;;;;;;6.63;3.10;;;13.00;1.00;;;;;;5059304;28;20507;-78
2022/05/22 05:19:52;;;;;;;6.17;3.40;;;13.10;1.00;;;;;;5060299;28;20484;-79
2022/05/22 05:22:19;;;;;;;9.97;3.27;;;13.10;1.00;;;;;;5059030;28;20494;-78
2022/05/22 05:24:45;;;;;;;6.87;3.60;;;13.00;1.00;;;;;;5058107;28;20533;-80
2022/05/22 05:27:12;;;;;;;4.70;3.17;;;13.10;1.00;;;;;;5057372;28;20504;-78
2022/05/22 05:29:39;;;;;;;9.13;3.00;;;13.10;1.00;;;;;;5060968;28;20504;-79
2022/05/22 05:32:06;;;;;;;9.23;3.00;;;13.20;1.00;;;;;;5063642;28;20459;-78
2022/05/22 05:34:33;;;;;;;14.20;5.10;;;13.20;1.00;;;;;;5057619;28;21362;-79
2022/05/22 05:37:01;;;;;;;6.77;3.80;;;13.30;1.00;;;;;;5060367;28;20563;-79
2022/05/22 05:39:28;;;;;;;5.83;3.70;;;13.30;1.00;;;;;;5061907;28;20462;-79
2022/05/22 05:41:56;;;;;;;9.40;3.43;;;13.30;1.00;;;;;;5058752;28;20482;-79
2022/05/22 05:44:22;;;;;;;7.73;3.47;;;13.40;1.00;;;;;;5063430;28;20462;-78
2022/05/22 05:46:49;;;;;;;5.87;3.53;;;13.50;1.00;;;;;;5062767;28;21351;-78
2022/05/22 05:49:16;;;;;;;9.50;3.50;;;13.70;1.00;;;;;;5061299;28;20616;-78
2022/05/22 05:51:42;;;;;;;6.30;3.60;;;13.80;1.00;;;;;;5062412;28;21586;-78
2022/05/22 05:54:10;;;;;;;8.77;3.70;;;14.00;1.00;;;;;;5063171;28;20512;-78
2022/05/22 05:56:39;;;;;;;6.63;3.60;;;14.10;1.00;;;;;;5060611;28;20656;-78
2022/05/22 05:59:06;;;;;;;6.47;3.13;;;14.30;1.00;;;;;;5062304;28;20453;-80
2022/05/22 06:01:33;;;;;;;10.27;3.53;;;14.40;1.00;;;;;;5060829;28;20519;-79
2022/05/22 06:04:01;;;;;;;9.07;3.83;;;14.40;1.00;;;;;;5056257;28;20487;-80
2022/05/22 06:06:27;;;;;;;9.73;3.70;;;14.40;1.00;;;;;;5062804;28;20573;-79
2022/05/22 06:08:55;;;;;;;7.80;3.10;;;14.60;1.00;;;;;;5060393;28;20466;-80
2022/05/22 06:11:23;;;;;;;6.43;3.10;;;14.80;1.00;;;;;;5062559;28;22824;-80
2022/05/22 06:13:51;;;;;;;5.73;3.00;;;14.90;1.00;;;;;;5062037;28;20621;-80
2022/05/22 06:16:18;;;;;;;7.70;3.17;;;15.00;1.00;;;;;;5064132;28;20482;-80
2022/05/22 06:18:45;;;;;;;7.17;3.10;;;15.30;1.00;;;;;;5059445;28;21210;-82
2022/05/22 06:21:13;;;;;;;5.43;2.97;;;15.30;1.00;;;;;;5065449;28;21407;-80
2022/05/22 06:23:40;;;;;;;7.70;3.97;;;15.40;1.00;;;;;;5060167;28;20478;-80
2022/05/22 06:26:08;;;;;;;7.17;3.30;;;15.60;1.00;;;;;;5064433;28;20494;-79
2022/05/22 06:28:37;;;;;;;5.10;2.87;;;15.70;1.00;;;;;;5064315;28;20463;-80
2022/05/22 06:31:04;;;;;;;6.23;2.63;;;15.60;1.00;;;;;;5062336;28;20575;-81
2022/05/22 06:33:31;;;;;;;7.80;3.27;;;15.70;1.00;;;;;;5063179;28;20478;-81
2022/05/22 06:35:59;;;;;;;7.30;3.50;;;15.60;1.00;;;;;;5056090;28;20473;-80
2022/05/22 06:41:13;;;;;;;8.47;3.10;;;15.20;1.00;;;;;;5061796;28;20463;-77
2022/05/22 06:43:41;;;;;;;7.00;3.27;;;15.30;1.00;;;;;;5056968;28;20482;-77
2022/05/22 06:46:08;;;;;;;7.50;3.00;;;15.40;1.00;;;;;;5062708;28;20960;-77
2022/05/22 06:48:34;;;;;;;8.67;2.73;;;15.40;1.00;;;;;;5062520;28;20469;-78
2022/05/22 06:51:01;;;;;;;6.47;2.63;;;15.60;1.00;;;;;;5062443;28;20463;-78
2022/05/22 06:53:28;;;;;;;8.23;2.87;;;15.90;1.00;;;;;;5062106;28;20553;-77
2022/05/22 06:55:54;;;;;;;6.13;2.73;;;16.00;1.00;;;;;;5060542;28;20467;-78
2022/05/22 06:58:21;;;;;;;4.90;2.30;;;16.10;1.00;;;;;;5066082;28;20520;-76
2022/05/22 07:00:53;;;;;;;5.93;2.57;;;16.30;1.00;;;;;;5054489;28;20475;-78
2022/05/22 07:03:19;;;;;;;5.10;3.23;;;16.40;1.00;;;;;;5062238;28;20467;-77
2022/05/22 07:05:47;;;;;;;5.20;2.77;;;16.50;1.00;;;;;;5056805;28;20467;-77
2022/05/22 07:08:13;;;;;;;6.07;3.07;;;16.40;1.00;;;;;;5061178;28;20464;-77
2022/05/22 07:13:24;;;;;;;6.23;2.73;;;16.30;1.00;;;;;;5058729;28;20953;-79
2022/05/22 07:15:59;;;;;;;6.97;2.90;;;16.10;1.00;;;;;;5056249;28;20569;-77
2022/05/22 07:18:26;;;;;;;6.30;2.97;;;16.10;1.00;;;;;;5064676;28;20830;-78
2022/05/22 07:20:53;;;;;;;5.27;3.17;;;16.30;1.00;;;;;;5058204;28;20985;-77
2022/05/22 07:23:20;;;;;;;7.10;2.97;;;16.60;1.00;;;;;;5061383;28;20436;-78
2022/05/22 07:25:46;;;;;;;7.10;2.80;;;17.00;1.00;;;;;;5065804;28;20480;-78
2022/05/22 07:28:13;;;;;;;8.40;3.23;;;17.10;1.00;;;;;;5060695;28;20493;-77
2022/05/22 07:30:40;;;;;;;7.80;2.80;;;17.20;1.00;;;;;;5060573;28;20460;-77
2022/05/22 07:33:08;;;;;;;7.67;2.40;;;17.00;1.00;;;;;;5062388;28;20821;-77
2022/05/22 07:35:34;;;;;;;8.83;2.43;;;16.90;1.00;;;;;;5057707;28;20570;-77
2022/05/22 07:38:01;;;;;;;4.40;2.00;;;16.80;1.00;;;;;;5061439;28;20847;-76
2022/05/22 07:40:29;;;;;;;4.83;2.10;;;16.70;1.00;;;;;;5059053;28;20466;-77
2022/05/22 07:42:55;;;;;;;6.17;2.70;;;16.60;1.00;;;;;;5060518;28;20456;-77
2022/05/22 07:45:22;;;;;;;5.40;2.50;;;16.60;1.00;;;;;;5061143;28;20462;-76
2022/05/22 07:47:49;;;;;;;4.33;2.47;;;16.60;1.00;;;;;;5059550;28;20502;-75
2022/05/22 07:50:20;;;;;;;6.00;2.50;;;16.80;1.00;;;;;;5061549;28;20956;-74
2022/05/22 07:52:48;;;;;;;6.80;2.30;;;17.00;1.00;;;;;;5062313;28;20567;-78
2022/05/22 07:55:18;;;;;;;8.20;2.50;;;17.10;1.00;;;;;;5060673;28;20472;-76
2022/05/22 07:57:46;;;;;;;5.73;2.10;;;17.30;1.00;;;;;;5058992;28;20463;-76
2022/05/22 08:00:16;;;;;;;5.37;2.17;;;17.50;1.00;;;;;;5061125;28;20601;-76
2022/05/22 08:02:43;;;;;;;6.63;1.80;;;17.50;1.00;;;;;;5058495;28;21008;-75
2022/05/22 08:05:12;;;;;;;5.77;1.50;;;17.20;1.00;;;;;;5055396;28;20474;-76
2022/05/22 08:07:40;;;;;;;4.50;1.80;;;17.00;1.00;;;;;;5052588;28;20493;-76
2022/05/22 08:10:09;;;;;;;5.40;2.10;;;16.70;1.00;;;;;;5057900;28;20542;-77
2022/05/22 08:12:37;;;;;;;6.80;1.67;;;16.80;1.00;;;;;;5058552;28;20524;-78
2022/05/22 08:15:05;;;;;;;4.57;1.73;;;16.80;1.00;;;;;;5058058;28;20475;-77
2022/05/22 08:17:36;;;;;;;4.80;1.80;;;16.70;1.00;;;;;;5064672;28;20833;-77
2022/05/22 08:20:03;;;;;;;4.67;1.90;;;16.70;1.00;;;;;;5066101;28;20481;-77
2022/05/22 08:22:30;;;;;;;5.17;1.70;;;16.80;1.00;;;;;;5047149;28;20457;-77
2022/05/22 08:24:58;;;;;;;5.73;2.20;;;17.10;1.00;;;;;;5065024;28;20467;-80
2022/05/22 08:27:25;;;;;;;4.83;1.63;;;17.50;1.00;;;;;;5068733;28;20451;-78
2022/05/22 08:29:51;;;;;;;6.10;2.00;;;17.70;1.00;;;;;;5067150;28;20474;-78
2022/05/22 08:32:18;;;;;;;4.87;1.73;;;17.90;1.00;;;;;;5066213;28;20455;-80
2022/05/22 08:34:44;;;;;;;3.80;1.37;;;18.20;1.00;;;;;;5057082;28;20580;-77
2022/05/22 08:37:11;;;;;;;8.03;1.70;;;18.30;1.00;;;;;;5063945;28;20549;-74
2022/05/22 08:39:38;;;;;;;6.40;1.90;;;18.90;1.00;;;;;;5058959;28;20506;-74
2022/05/22 08:42:11;;;;;;;4.40;1.90;;;19.60;1.00;;;;;;5062952;28;21572;-83
2022/05/22 08:44:39;;;;;;;3.23;1.73;;;20.10;1.00;;;;;;5032150;28;20480;-75
2022/05/22 08:47:13;;;;;;;6.23;2.10;;;20.00;1.00;;;;;;5073545;28;20404;-79
2022/05/22 08:49:47;;;;;;;3.83;1.50;;;19.60;1.00;;;;;;5069125;28;20465;-76
2022/05/22 08:52:27;;;;;;;5.10;2.30;;;19.30;1.00;;;;;;5068898;28;20468;-80
2022/05/22 08:55:04;;;;;;;7.13;2.60;;;19.20;1.00;;;;;;5060517;28;20463;-79
2022/05/22 09:00:24;;;;;;;5.33;1.80;;;19.40;1.00;;;;;;5060538;28;20452;-75
2022/05/22 09:02:59;;;;;;;4.60;1.73;;;19.60;1.00;;;;;;5062438;28;20493;-76
2022/05/22 09:05:28;;;;;;;6.10;1.73;;;19.80;1.00;;;;;;5059200;28;20477;-75
2022/05/22 09:08:01;;;;;;;6.03;2.13;;;19.90;1.00;;;;;;5060673;28;20472;-73
2022/05/22 09:10:41;;;;;;;4.83;1.53;;;20.00;1.00;;;;;;5062145;28;20556;-77
2022/05/22 09:13:19;;;;;;;4.63;1.73;;;20.10;1.00;;;;;;5062065;28;20524;-77
2022/05/22 09:15:49;;;;;;;5.60;2.00;;;19.90;1.00;;;;;;5060168;28;20960;-78
2022/05/22 09:18:26;;;;;;;4.87;1.60;;;19.50;1.00;;;;;;5065485;28;20467;-77
2022/05/22 09:20:56;;;;;;;8.90;1.67;;;19.00;1.00;;;;;;5058111;28;20474;-76
2022/05/22 09:23:49;;;;;;;5.00;1.90;;;18.50;1.00;;;;;;5059524;28;20467;-79
2022/05/22 09:26:26;;;;;;;5.67;2.10;;;18.20;1.00;;;;;;5060677;28;20577;-78
2022/05/22 09:29:01;;;;;;;5.40;1.90;;;18.10;1.00;;;;;;5063354;28;20984;-78
2022/05/22 09:31:37;;;;;;;5.60;1.60;;;18.10;1.00;;;;;;5061473;28;20439;-77
2022/05/22 09:34:12;;;;;;;4.80;1.90;;;18.10;1.00;;;;;;5056738;28;20533;-78
2022/05/22 09:36:52;;;;;;;4.53;1.57;;;18.10;1.00;;;;;;5057209;28;21261;-78
2022/05/22 09:39:36;;;;;;;4.40;1.73;;;18.20;1.00;;;;;;5054470;28;20576;-79
2022/05/22 09:42:21;;;;;;;5.50;1.73;;;18.60;1.00;;;;;;5041051;28;20459;-78
2022/05/22 09:45:06;;;;;;;9.00;2.50;;;19.20;1.00;;;;;;5049704;28;20464;-78
2022/05/22 09:47:52;;;;;;;4.70;1.87;;;19.80;1.00;;;;;;5051898;28;21038;-77
2022/05/22 09:50:32;;;;;;;4.80;1.90;;;20.20;1.00;;;;;;5057003;28;20632;-78
2022/05/22 09:59:13;;;;;;;8.00;2.90;;;20.40;1.00;;;;;;5051470;28;20479;-79
2022/05/22 10:04:51;;;;;;;4.97;2.10;;;21.30;1.00;;;;;;5059132;28;21836;-78
2022/05/22 10:07:25;;;;;;;5.17;1.60;;;21.70;1.00;;;;;;5052895;28;20452;-77
2022/05/22 10:10:01;;;;;;;6.07;1.90;;;21.70;1.00;;;;;;5056945;28;20480;-78
2022/05/22 10:12:38;;;;;;;5.30;1.77;;;21.60;1.00;;;;;;5058483;28;20832;-79
2022/05/22 10:15:22;;;;;;;4.50;1.50;;;21.50;1.00;;;;;;5057185;28;20457;-78
2022/05/22 10:18:04;;;;;;;5.83;1.30;;;21.20;1.00;;;;;;5053215;28;20512;-78
2022/05/22 10:20:44;;;;;;;5.97;1.60;;;21.00;1.00;;;;;;5054298;28;20505;-76
2022/05/22 10:23:20;;;;;;;8.90;4.07;;;21.40;1.00;;;;;;5054884;28;20517;-77
2022/05/22 10:25:59;;;;;;;6.07;1.93;;;22.10;1.00;;;;;;5050534;28;20487;-78
2022/05/22 10:28:31;;;;;;;7.60;1.67;;;23.70;1.00;;;;;;5052036;28;20529;-77
2022/05/22 10:31:05;;;;;;;6.23;1.60;;;24.00;1.00;;;;;;5056462;28;21033;-78
2022/05/22 10:33:39;;;;;;;7.90;2.77;;;23.50;1.00;;;;;;5053394;28;20442;-77
2022/05/22 10:36:11;;;;;;;8.20;2.00;;;22.70;1.00;;;;;;5054208;28;20459;-77
2022/05/22 10:38:44;;;;;;;6.50;1.73;;;22.10;1.00;;;;;;5055429;28;20459;-77
2022/05/22 10:44:09;;;;;;;6.10;1.53;;;22.80;1.00;;;;;;5060068;28;20457;-77
2022/05/22 10:46:46;;;;;;;5.67;1.53;;;25.10;1.00;;;;;;5053737;28;20483;-77
2022/05/22 10:49:13;;;;;;;8.43;1.80;;;25.40;1.00;;;;;;5056514;28;20467;-76
2022/05/22 10:51:40;;;;;;;6.27;1.67;;;24.60;1.00;;;;;;5058500;28;20499;-77
2022/05/22 10:54:07;;;;;;;7.57;1.50;;;23.50;1.00;;;;;;5056123;28;20471;-77
2022/05/22 10:56:36;;;;;;;7.27;1.83;;;22.70;1.00;;;;;;5031843;28;20492;-76
2022/05/22 10:59:05;;;;;;;7.43;2.00;;;22.40;1.00;;;;;;5057041;28;20448;-77
2022/05/22 11:01:34;;;;;;;7.27;1.60;;;22.80;1.00;;;;;;5057505;28;20487;-77
2022/05/22 11:04:05;;;;;;;9.53;2.63;;;22.50;1.00;;;;;;5056021;28;20453;-78
2022/05/22 11:06:35;;;;;;;5.90;1.60;;;22.20;1.00;;;;;;5065026;28;20447;-75
2022/05/22 11:09:02;;;;;;;8.10;2.30;;;21.80;1.00;;;;;;5059076;28;20535;-76
2022/05/22 11:11:30;;;;;;;5.30;1.60;;;21.60;1.00;;;;;;5058504;28;20561;-76
2022/05/22 11:14:15;;;;;;;7.50;1.80;;;21.60;1.00;;;;;;5060752;28;20468;-76
2022/05/22 11:16:44;;;;;;;7.40;1.60;;;21.90;1.00;;;;;;5060423;28;20458;-77
2022/05/22 11:19:12;;;;;;;5.70;1.70;;;22.90;1.00;;;;;;5061010;28;20467;-77
2022/05/22 11:22:01;;;;;;;5.60;1.17;;;24.30;1.00;;;;;;5058184;28;20536;-77
2022/05/22 11:24:35;;;;;;;7.07;1.97;;;25.90;1.00;;;;;;5059542;28;20443;-77
2022/05/22 11:27:14;;;;;;;7.00;1.20;;;27.70;1.00;;;;;;5055551;28;20882;-78
2022/05/22 11:30:01;;;;;;;5.50;1.10;;;29.10;1.00;;;;;;5056524;28;20508;-77
2022/05/22 11:32:41;;;;;;;6.30;1.20;;;28.80;1.00;;;;;;5059144;28;20470;-77
2022/05/22 11:35:28;;;;;;;5.70;1.23;;;30.20;1.00;;;;;;5062062;28;20447;-77
2022/05/22 11:38:16;;;;;;;5.70;1.20;;;31.60;1.00;;;;;;5054645;28;20474;-80
2022/05/22 11:40:48;;;;;;;7.70;2.03;;;31.80;1.00;;;;;;5053737;28;20594;-77
2022/05/22 11:43:38;;;;;;;6.03;1.70;;;29.90;1.00;;;;;;5059283;28;21072;-76
2022/05/22 11:46:10;;;;;;;6.63;1.50;;;27.60;1.00;;;;;;5065335;28;20455;-77
2022/05/22 11:48:56;;;;;;;6.40;1.13;;;25.80;1.00;;;;;;5059811;28;20463;-77
2022/05/22 11:51:49;;;;;;;7.27;1.80;;;25.60;1.00;;;;;;5059479;28;20463;-78
2022/05/22 11:54:32;;;;;;;6.63;1.53;;;27.40;1.00;;;;;;5059842;28;20466;-77
2022/05/22 11:57:11;;;;;;;6.50;1.43;;;29.90;1.00;;;;;;5046329;28;20466;-79
2022/05/22 12:00:04;;;;;;;7.27;1.93;;;30.30;1.00;;;;;;5063094;28;20447;-77
2022/05/22 12:02:46;;;;;;;6.80;1.93;;;29.50;1.00;;;;;;5065689;28;20478;-77
2022/05/22 12:05:24;;;;;;;8.43;1.87;;;28.10;1.00;;;;;;5066037;28;20985;-77
2022/05/22 12:08:14;;;;;;;8.27;2.37;;;26.50;1.00;;;;;;5067463;28;20511;-77
2022/05/22 12:10:48;;;;;;;9.33;2.10;;;25.50;1.00;;;;;;5061817;28;20460;-78
2022/05/22 12:13:23;;;;;;;6.17;1.40;;;26.10;1.00;;;;;;5057709;28;20470;-77
2022/05/22 12:15:55;;;;;;;6.40;2.10;;;27.70;1.00;;;;;;5061032;28;20544;-77
2022/05/22 12:18:47;;;;;;;5.90;1.10;;;27.60;1.00;;;;;;5063917;28;20455;-78
2022/05/22 12:21:24;;;;;;;6.13;1.53;;;29.20;1.00;;;;;;5060471;28;20467;-76
2022/05/22 12:23:56;;;;;;;5.93;1.10;;;30.00;1.00;;;;;;5070309;28;20524;-76
2022/05/22 12:26:26;;;;;;;10.07;1.90;;;28.80;1.00;;;;;;5065725;28;20525;-77
2022/05/22 12:28:55;;;;;;;5.50;1.10;;;27.50;1.00;;;;;;5061581;28;20490;-76
2022/05/22 12:31:26;;;;;;;6.10;1.60;;;27.00;1.00;;;;;;5059035;28;20480;-77
2022/05/22 12:33:55;;;;;;;5.70;1.60;;;28.20;1.00;;;;;;5061648;28;20606;-77
2022/05/22 12:36:25;;;;;;;7.13;1.43;;;28.00;1.00;;;;;;5062345;28;20508;-77
2022/05/22 12:38:59;;;;;;;7.13;1.80;;;27.10;1.00;;;;;;5062080;28;21272;-77
2022/05/22 12:41:38;;;;;;;6.80;1.70;;;26.40;1.00;;;;;;5060516;28;20479;-77
2022/05/22 12:44:06;;;;;;;7.90;1.60;;;27.30;1.00;;;;;;5061489;28;21058;-76
2022/05/22 12:46:34;;;;;;;6.00;1.60;;;28.00;1.00;;;;;;5058443;28;20516;-77
2022/05/22 12:49:10;;;;;;;5.70;1.50;;;27.30;1.00;;;;;;5062750;28;20451;-76
2022/05/22 12:51:39;;;;;;;7.27;1.10;;;26.60;1.00;;;;;;5055695;28;20459;-78
2022/05/22 12:54:20;;;;;;;6.63;1.33;;;27.50;1.00;;;;;;5058567;28;20474;-77
2022/05/22 12:56:48;;;;;;;5.73;1.23;;;29.10;1.00;;;;;;5059380;28;20524;-81
2022/05/22 12:59:22;;;;;;;5.60;1.23;;;30.40;1.00;;;;;;5058949;28;20456;-79
2022/05/22 13:01:51;;;;;;;6.30;1.00;;;32.40;1.00;;;;;;5063624;28;20494;-79
2022/05/22 13:04:29;;;;;;;10.73;2.00;;;33.80;1.00;;;;;;5054288;28;20456;-79
2022/05/22 13:07:02;;;;;;;5.50;1.10;;;34.80;1.00;;;;;;5060012;28;20468;-80
2022/05/22 13:09:40;;;;;;;6.90;1.50;;;33.40;1.00;;;;;;5058634;28;20517;-77
2022/05/22 13:12:27;;;;;;;6.80;2.17;;;32.60;1.00;;;;;;5054730;28;21019;-78
2022/05/22 13:14:58;;;;;;;6.00;1.27;;;31.20;1.00;;;;;;5060117;28;20547;-79
2022/05/22 13:17:35;;;;;;;6.60;1.77;;;31.00;1.00;;;;;;5063720;28;21269;-79
2022/05/22 13:20:06;;;;;;;11.10;2.30;;;31.40;1.00;;;;;;5059648;28;20582;-78
2022/05/22 13:22:34;;;;;;;7.70;1.57;;;32.30;1.00;;;;;;5043784;28;20499;-77
2022/05/22 13:25:03;;;;;;;6.63;1.80;;;32.40;1.00;;;;;;5059163;28;20865;-78
2022/05/22 13:27:41;;;;;;;8.97;1.60;;;30.50;1.00;;;;;;5062037;28;20872;-80
2022/05/22 13:30:19;;;;;;;7.77;2.27;;;30.20;1.00;;;;;;5058437;28;20451;-79
2022/05/22 13:32:52;;;;;;;7.63;1.50;;;30.20;1.00;;;;;;5059059;28;20463;-79
2022/05/22 13:35:21;;;;;;;7.10;1.70;;;28.80;1.00;;;;;;5060445;28;20526;-79
2022/05/22 13:37:50;;;;;;;6.80;1.50;;;28.70;1.00;;;;;;5059104;28;20479;-79
2022/05/22 13:40:29;;;;;;;7.57;1.30;;;30.60;1.00;;;;;;5062966;28;20506;-80
2022/05/22 13:43:35;;;;;;;7.63;1.43;;;32.40;1.00;;;;;;5059518;28;20566;-80